Aiuruoca, Brazil
Current Conditions -  °F | °C
As of 10:00 AM on Saturday 20 Dec 2014 (Local Time) from SBGW Reporting Station
Broken Clouds Broken Clouds  
Wind Chill: 77°   Ceiling: 10000
Heat Index: 79°   Visibility: 6mi
Dew Point: 66°   Wind: 0mph
Humidity: 69%   Direction: NA
Pressure: 29.91"   Gusts: NA
Location:  21.98°S, 44.6°W
Report Text: SBGW 201200Z 00000KT 9999 FEW010 BKN100 25/19 Q1013
Loading
Personal Weather Stations






























Interactive Weather Map New forecast layout! Learn more

10-Day Weather Forecast

Advertisements
Track Severe Weather on mobile